createdAt,value
2022-12-01T00:01:07.324Z,102380.63
2022-12-01T00:03:35.193Z,102380.59
2022-12-01T00:06:07.213Z,102382.28
2022-12-01T00:08:34.100Z,102388.28
2022-12-01T00:11:09.080Z,102389.13
2022-12-01T00:13:36.567Z,102390.78
2022-12-01T00:16:14.208Z,102387.34
2022-12-01T00:18:41.626Z,102395.94
2022-12-01T00:21:18.740Z,102387.31
2022-12-01T00:23:47.459Z,102394.19
2022-12-01T00:26:14.939Z,102386.47
2022-12-01T00:28:41.599Z,102374.47
2022-12-01T00:31:09.139Z,102377.03
2022-12-01T00:33:35.983Z,102378.78
2022-12-01T00:36:03.435Z,102377.91
2022-12-01T00:38:30.240Z,102376.16
2022-12-01T00:40:56.937Z,102375.28
2022-12-01T00:43:24.951Z,102376.97
2022-12-01T00:45:51.932Z,102364.94
2022-12-01T00:48:20.753Z,102365.88
2022-12-01T00:50:47.748Z,102370.97
2022-12-01T00:53:14.323Z,102371.84
2022-12-01T00:55:40.856Z,102373.56
2022-12-01T00:58:07.642Z,102379.53
2022-12-01T01:00:34.278Z,102372.66
2022-12-01T01:03:00.848Z,102368.34
2022-12-01T01:05:27.437Z,102369.22
2022-12-01T01:07:54.140Z,102374.38
2022-12-01T01:10:20.757Z,102373.53
2022-12-01T01:12:47.325Z,102376.13
2022-12-01T01:15:13.998Z,102368.41
2022-12-01T01:17:40.643Z,102370.09
2022-12-01T01:20:07.775Z,102377.81
2022-12-01T01:22:35.278Z,102380.38
2022-12-01T01:25:01.862Z,102381.25
2022-12-01T01:27:28.431Z,102379.56
2022-12-01T01:29:54.946Z,102382.97
2022-12-01T01:32:21.754Z,102382.97
2022-12-01T01:34:48.457Z,102382.94
2022-12-01T01:37:15.029Z,102387.19
2022-12-01T01:39:41.801Z,102390.56
2022-12-01T01:42:12.840Z,102390.53
2022-12-01T01:44:54.682Z,102388.81
2022-12-01T01:47:28.426Z,102383.69
2022-12-01T01:49:57.193Z,102390.56
2022-12-01T01:52:24.583Z,102390.56
2022-12-01T01:54:55.391Z,102389.69
2022-12-01T01:57:42.012Z,102388.81
2022-12-01T02:00:12.839Z,102381.06
2022-12-01T02:02:44.260Z,102383.63
2022-12-01T02:05:20.395Z,102384.47
2022-12-01T02:07:47.921Z,102377.66
2022-12-01T02:10:22.256Z,102382.81
2022-12-01T02:13:20.473Z,102381.94
2022-12-01T02:16:18.842Z,102381.16
2022-12-01T02:19:43.269Z,102383.78
2022-12-01T02:22:27.804Z,102381.19
2022-12-01T02:25:18.484Z,102377.75
2022-12-01T02:28:03.957Z,102380.34
2022-12-01T02:30:58.297Z,102377.81
2022-12-01T02:33:50.852Z,102376.09
2022-12-01T02:36:20.910Z,102375.22
2022-12-01T02:38:55.668Z,102380.38
2022-12-01T02:41:24.782Z,102382.06
2022-12-01T02:44:16.379Z,102369.16
2022-12-01T02:46:54.525Z,102373.44
2022-12-01T02:49:26.428Z,102378.59
2022-12-01T02:51:55.773Z,102379.44
2022-12-01T02:54:24.110Z,102376.81
2022-12-01T02:56:54.163Z,102370.00
2022-12-01T02:59:20.756Z,102371.72
2022-12-01T03:01:52.139Z,102368.28
2022-12-01T03:04:30.833Z,102375.19
2022-12-01T03:07:35.360Z,102376.91
2022-12-01T03:10:21.100Z,102371.75
2022-12-01T03:13:06.845Z,102373.50
2022-12-01T03:15:45.888Z,102375.22
2022-12-01T03:18:18.411Z,102380.38
2022-12-01T03:20:58.874Z,102375.22
2022-12-01T03:23:30.181Z,102377.78
2022-12-01T03:25:59.067Z,102361.50
2022-12-01T03:28:32.559Z,102372.69
2022-12-01T03:31:05.238Z,102375.25
2022-12-01T03:33:36.712Z,102366.63
2022-12-01T03:36:25.979Z,102379.47
2022-12-01T03:39:00.236Z,102378.63
2022-12-01T03:41:42.212Z,102367.44
2022-12-01T03:44:16.683Z,102370.88
2022-12-01T03:46:55.375Z,102384.56
2022-12-01T03:49:24.754Z,102382.84
2022-12-01T03:52:19.333Z,102386.31
2022-12-01T03:54:57.811Z,102378.56
2022-12-01T03:57:30.339Z,102366.59
2022-12-01T03:59:57.171Z,102369.16
2022-12-01T04:02:27.699Z,102374.34
2022-12-01T04:04:54.400Z,102380.34
2022-12-01T04:07:21.912Z,102379.44
2022-12-01T04:09:49.005Z,102369.16
2022-12-01T04:12:32.744Z,102376.88
2022-12-01T04:15:01.683Z,102379.44
2022-12-01T04:17:28.834Z,102382.88
2022-12-01T04:19:55.510Z,102382.03
2022-12-01T04:22:23.115Z,102380.34
2022-12-01T04:24:49.785Z,102386.34
2022-12-01T04:27:16.554Z,102389.78
2022-12-01T04:29:43.229Z,102391.47
2022-12-01T04:32:09.856Z,102392.25
2022-12-01T04:34:36.729Z,102389.69
2022-12-01T04:37:04.302Z,102388.81
2022-12-01T04:39:30.872Z,102393.13
2022-12-01T04:41:57.436Z,102398.25
2022-12-01T04:44:24.188Z,102395.66
2022-12-01T04:46:52.333Z,102405.13
2022-12-01T04:49:20.248Z,102399.09
2022-12-01T04:51:46.987Z,102405.13
2022-12-01T04:54:14.322Z,102392.22
2022-12-01T04:56:41.442Z,102400.81
2022-12-01T04:59:08.652Z,102397.38
2022-12-01T05:01:35.351Z,102387.91
2022-12-01T05:04:02.558Z,102393.84
2022-12-01T05:06:29.552Z,102384.41
2022-12-01T05:08:58.180Z,102392.16
2022-12-01T05:11:25.821Z,102399.94
2022-12-01T05:13:52.699Z,102399.09
2022-12-01T05:16:22.239Z,102399.13
2022-12-01T05:18:50.712Z,102402.53
2022-12-01T05:21:18.163Z,102389.59
2022-12-01T05:23:45.646Z,102402.47
2022-12-01T05:26:12.183Z,102391.28
2022-12-01T05:28:40.808Z,102394.72
2022-12-01T05:31:07.438Z,102395.63
2022-12-01T05:33:34.093Z,102404.22
2022-12-01T05:36:00.816Z,102399.97
2022-12-01T05:38:30.388Z,102408.50
2022-12-01T05:40:56.954Z,102405.03
2022-12-01T05:43:29.031Z,102412.78
2022-12-01T05:45:56.832Z,102409.38
2022-12-01T05:48:23.767Z,102405.97
2022-12-01T05:50:50.447Z,102409.41
2022-12-01T05:53:17.074Z,102411.13
2022-12-01T05:55:43.775Z,102418.81
2022-12-01T05:58:11.034Z,102418.88
2022-12-01T06:00:45.801Z,102422.31
2022-12-01T06:03:13.522Z,102416.28
2022-12-01T06:05:40.755Z,102425.72
2022-12-01T06:08:08.056Z,102424.84
2022-12-01T06:10:34.737Z,102431.72
2022-12-01T06:13:01.467Z,102430.91
2022-12-01T06:15:28.449Z,102432.59
2022-12-01T06:17:55.128Z,102426.56
2022-12-01T06:20:23.303Z,102426.50
2022-12-01T06:22:49.947Z,102424.78
2022-12-01T06:25:16.622Z,102431.63
2022-12-01T06:27:43.183Z,102427.38
2022-12-01T06:30:10.084Z,102435.03
2022-12-01T06:32:36.750Z,102425.59
2022-12-01T06:35:03.461Z,102437.66
2022-12-01T06:37:30.113Z,102435.06
2022-12-01T06:39:56.678Z,102439.38
2022-12-01T06:42:23.471Z,102444.56
2022-12-01T06:44:50.096Z,102439.44
2022-12-01T06:47:16.697Z,102441.97
2022-12-01T06:49:43.275Z,102443.72
2022-12-01T06:52:10.407Z,102448.00
2022-12-01T06:54:37.469Z,102451.47
2022-12-01T06:57:04.651Z,102451.50
2022-12-01T06:59:31.608Z,102443.75
2022-12-01T07:01:58.981Z,102456.63
2022-12-01T07:04:25.679Z,102450.59
2022-12-01T07:06:52.304Z,102452.31
2022-12-01T07:09:19.031Z,102456.59
2022-12-01T07:11:45.564Z,102466.91
2022-12-01T07:14:23.614Z,102463.50
2022-12-01T07:16:50.803Z,102457.50
2022-12-01T07:19:17.518Z,102454.91
2022-12-01T07:21:44.161Z,102451.50
2022-12-01T07:24:12.521Z,102455.75
2022-12-01T07:26:40.260Z,102460.88
2022-12-01T07:29:07.559Z,102458.31
2022-12-01T07:31:34.256Z,102453.16
2022-12-01T07:34:00.804Z,102450.56
2022-12-01T07:36:27.472Z,102450.56
2022-12-01T07:38:54.047Z,102453.16
2022-12-01T07:41:20.802Z,102454.03
2022-12-01T07:43:50.365Z,102463.47
2022-12-01T07:46:23.116Z,102456.56
2022-12-01T07:48:51.675Z,102456.59
2022-12-01T07:51:18.816Z,102453.22
2022-12-01T07:53:47.537Z,102450.66
2022-12-01T07:56:14.259Z,102456.69
2022-12-01T07:58:41.409Z,102462.69
2022-12-01T08:01:09.331Z,102462.66
2022-12-01T08:03:36.500Z,102462.66
2022-12-01T08:06:03.522Z,102463.53
2022-12-01T08:08:32.238Z,102464.34
2022-12-01T08:11:05.543Z,102468.59
2022-12-01T08:13:32.781Z,102465.94
2022-12-01T08:16:02.563Z,102478.84
2022-12-01T08:18:29.266Z,102472.78
2022-12-01T08:20:58.801Z,102473.63
2022-12-01T08:23:25.509Z,102459.91
2022-12-01T08:25:55.259Z,102469.38
2022-12-01T08:28:21.955Z,102478.72
2022-12-01T08:30:48.590Z,102471.81
2022-12-01T08:33:15.283Z,102478.75
2022-12-01T08:35:41.844Z,102476.25
2022-12-01T08:38:09.398Z,102476.22
2022-12-01T08:40:36.322Z,102482.22
2022-12-01T08:43:03.088Z,102489.13
2022-12-01T08:45:29.761Z,102481.41
2022-12-01T08:48:00.026Z,102485.69
2022-12-01T08:50:27.141Z,102476.25
2022-12-01T08:52:53.763Z,102482.31
2022-12-01T08:55:21.881Z,102490.06
2022-12-01T08:57:48.439Z,102491.75
2022-12-01T09:00:16.292Z,102496.03
2022-12-01T09:02:42.921Z,102502.84
2022-12-01T09:05:09.803Z,102507.13
2022-12-01T09:07:36.641Z,102502.81
2022-12-01T09:10:04.296Z,102505.44
2022-12-01T09:12:30.915Z,102506.25
2022-12-01T09:14:57.566Z,102507.13
2022-12-01T09:17:24.064Z,102506.31
2022-12-01T09:19:51.027Z,102509.75
2022-12-01T09:22:17.901Z,102506.31
2022-12-01T09:24:44.438Z,102503.75
2022-12-01T09:27:10.968Z,102517.47
2022-12-01T09:29:37.613Z,102508.03
2022-12-01T09:32:04.225Z,102510.59
2022-12-01T09:34:30.904Z,102507.13
2022-12-01T09:36:58.497Z,102505.34
2022-12-01T09:39:25.688Z,102507.88
2022-12-01T09:42:22.249Z,102506.16
2022-12-01T09:44:52.940Z,102509.59
2022-12-01T09:47:29.857Z,102500.19
2022-12-01T09:50:27.406Z,102497.53
2022-12-01T09:52:59.833Z,102501.00
2022-12-01T09:55:28.767Z,102503.56
2022-12-01T09:57:57.633Z,102503.53
2022-12-01T10:00:40.185Z,102496.69
2022-12-01T10:03:22.031Z,102506.19
2022-12-01T10:06:25.143Z,102504.44
2022-12-01T10:08:43.994Z,102501.88
2022-12-01T10:11:29.167Z,102496.69
2022-12-01T10:13:55.800Z,102494.13
2022-12-01T10:16:31.651Z,102499.31
2022-12-01T10:19:32.888Z,102497.66
2022-12-01T10:22:23.662Z,102490.75
2022-12-01T10:24:59.965Z,102491.59
2022-12-01T10:27:38.464Z,102497.59
2022-12-01T10:30:16.945Z,102493.28
2022-12-01T10:33:01.875Z,102484.69
2022-12-01T10:35:36.035Z,102491.53
2022-12-01T10:38:06.748Z,102484.59
2022-12-01T10:40:36.524Z,102482.84
2022-12-01T10:43:03.382Z,102478.53
2022-12-01T10:45:37.278Z,102471.66
2022-12-01T10:48:17.537Z,102477.66
2022-12-01T10:50:48.383Z,102482.81
2022-12-01T10:53:28.256Z,102484.50
2022-12-01T10:56:06.315Z,102481.03
2022-12-01T10:58:43.801Z,102473.31
2022-12-01T11:01:22.012Z,102472.44
2022-12-01T11:03:57.537Z,102476.84
2022-12-01T11:06:28.033Z,102472.56
2022-12-01T11:09:01.043Z,102477.72
2022-12-01T11:11:40.508Z,102465.72
2022-12-01T11:14:23.778Z,102471.75
2022-12-01T11:16:53.978Z,102473.47
2022-12-01T11:19:33.897Z,102463.09
2022-12-01T11:22:03.326Z,102469.09
2022-12-01T11:24:29.888Z,102463.94
2022-12-01T11:27:00.530Z,102452.72
2022-12-01T11:29:36.197Z,102452.78
2022-12-01T11:32:22.778Z,102461.34
2022-12-01T11:35:03.639Z,102457.00
2022-12-01T11:37:38.987Z,102455.25
2022-12-01T11:40:13.661Z,102450.97
2022-12-01T11:42:41.442Z,102469.25
2022-12-01T11:45:21.210Z,102469.28
2022-12-01T11:48:16.593Z,102473.47
2022-12-01T11:50:45.217Z,102463.88
2022-12-01T11:53:32.682Z,102463.84
2022-12-01T11:56:28.593Z,102474.94
2022-12-01T11:59:03.839Z,102463.78
2022-12-01T12:01:42.528Z,102461.19
2022-12-01T12:04:30.709Z,102473.19
2022-12-01T12:07:13.313Z,102471.44
2022-12-01T12:09:55.200Z,102461.19
2022-12-01T12:12:49.543Z,102462.03
2022-12-01T12:15:28.771Z,102474.97
2022-12-01T12:18:29.235Z,102467.19
2022-12-01T12:21:29.406Z,102474.09
2022-12-01T12:24:03.352Z,102467.19
2022-12-01T12:26:35.257Z,102455.13
2022-12-01T12:29:37.914Z,102462.13
2022-12-01T12:32:28.356Z,102458.63
2022-12-01T12:35:23.574Z,102455.25
2022-12-01T12:38:02.719Z,102459.75
2022-12-01T12:40:41.852Z,102458.91
2022-12-01T12:43:27.366Z,102463.31
2022-12-01T12:46:09.174Z,102460.63
2022-12-01T12:49:19.611Z,102453.72
2022-12-01T12:51:56.803Z,102455.53
2022-12-01T12:54:43.314Z,102455.50
2022-12-01T12:57:35.004Z,102433.19
2022-12-01T13:00:05.070Z,102459.03
2022-12-01T13:02:43.889Z,102454.72
2022-12-01T13:05:19.403Z,102452.03
2022-12-01T13:07:46.070Z,102451.06
2022-12-01T13:10:44.926Z,102444.97
2022-12-01T13:13:25.773Z,102439.81
2022-12-01T13:15:55.813Z,102427.75
2022-12-01T13:18:30.128Z,102445.81
2022-12-01T13:20:57.843Z,102444.00
2022-12-01T13:23:25.297Z,102443.13
2022-12-01T13:25:56.158Z,102440.50
2022-12-01T13:28:53.995Z,102441.38
2022-12-01T13:31:21.993Z,102439.78
2022-12-01T13:34:03.895Z,102436.31
2022-12-01T13:36:46.640Z,102437.97
2022-12-01T13:39:40.547Z,102437.13
2022-12-01T13:42:23.716Z,102440.56
2022-12-01T13:44:56.973Z,102439.78
2022-12-01T13:47:31.661Z,102435.47
2022-12-01T13:50:36.181Z,102439.78
2022-12-01T13:53:30.516Z,102437.97
2022-12-01T13:56:03.444Z,102443.94
2022-12-01T13:58:33.178Z,102443.06
2022-12-01T14:01:21.821Z,102447.41
2022-12-01T14:03:57.826Z,102432.03
2022-12-01T14:06:51.151Z,102437.19
2022-12-01T14:09:24.041Z,102436.34
2022-12-01T14:12:17.548Z,102443.25
2022-12-01T14:14:57.127Z,102440.56
2022-12-01T14:17:33.882Z,102443.97
2022-12-01T14:20:19.663Z,102441.53
2022-12-01T14:23:13.101Z,102437.25
2022-12-01T14:25:41.547Z,102440.69
2022-12-01T14:28:19.442Z,102439.81
2022-12-01T14:30:46.099Z,102441.53
2022-12-01T14:33:42.609Z,102439.81
2022-12-01T14:36:24.593Z,102447.59
2022-12-01T14:38:54.401Z,102446.69
2022-12-01T14:41:45.748Z,102445.81
2022-12-01T14:44:17.567Z,102448.41
2022-12-01T14:46:51.574Z,102432.91
2022-12-01T14:49:24.119Z,102444.03
2022-12-01T14:52:06.947Z,102442.25
2022-12-01T14:54:45.309Z,102438.81
2022-12-01T14:57:17.227Z,102432.81
2022-12-01T14:59:44.830Z,102426.81
2022-12-01T15:02:12.416Z,102436.25
2022-12-01T15:05:27.519Z,102442.22
2022-12-01T15:08:18.643Z,102434.50
2022-12-01T15:11:00.462Z,102444.03
2022-12-01T15:13:30.265Z,102442.31
2022-12-01T15:16:02.437Z,102441.47
2022-12-01T15:18:31.591Z,102437.97
2022-12-01T15:21:06.977Z,102432.91
2022-12-01T15:23:33.891Z,102438.88
2022-12-01T15:26:00.465Z,102432.00
2022-12-01T15:28:35.397Z,102437.22
2022-12-01T15:31:10.305Z,102437.25
2022-12-01T15:33:39.015Z,102439.03
2022-12-01T15:36:07.373Z,102439.97
2022-12-01T15:38:36.853Z,102445.16
2022-12-01T15:41:28.400Z,102446.84
2022-12-01T15:43:58.343Z,102438.25
2022-12-01T15:46:36.921Z,102444.41
2022-12-01T15:49:29.292Z,102435.75
2022-12-01T15:52:10.963Z,102432.31
2022-12-01T15:54:38.917Z,102426.28
2022-12-01T15:57:06.839Z,102433.13
2022-12-01T15:59:40.889Z,102440.06
2022-12-01T16:02:31.269Z,102435.72
2022-12-01T16:05:13.281Z,102428.84
2022-12-01T16:08:11.491Z,102427.16
2022-12-01T16:10:28.707Z,102424.63
2022-12-01T16:13:33.880Z,102428.94
2022-12-01T16:16:00.660Z,102432.41
2022-12-01T16:18:34.470Z,102424.69
2022-12-01T16:21:04.177Z,102434.97
2022-12-01T16:23:32.045Z,102423.81
2022-12-01T16:43:39.296Z,102436.78
2022-12-01T16:46:19.222Z,102429.94
2022-12-01T16:54:54.216Z,102430.75
2022-12-01T16:57:21.454Z,102429.88
2022-12-01T16:59:49.699Z,102445.38
2022-12-01T17:02:18.288Z,102441.00
2022-12-01T17:04:45.093Z,102441.84
2022-12-01T17:07:11.831Z,102448.72
2022-12-01T17:09:38.436Z,102438.38
2022-12-01T17:12:05.373Z,102430.59
2022-12-01T17:14:32.001Z,102438.41
2022-12-01T17:16:58.668Z,102435.84
2022-12-01T17:19:25.196Z,102442.72
2022-12-01T17:21:52.838Z,102445.28
2022-12-01T17:24:19.564Z,102447.88
2022-12-01T17:26:46.268Z,102452.16
2022-12-01T17:29:12.849Z,102452.13
2022-12-01T17:31:39.658Z,102439.25
2022-12-01T17:34:06.280Z,102442.78
2022-12-01T17:36:34.403Z,102441.94
2022-12-01T17:39:00.953Z,102442.84
2022-12-01T17:41:32.348Z,102447.97
2022-12-01T17:44:01.515Z,102446.28
2022-12-01T17:46:28.205Z,102455.75
2022-12-01T17:48:54.873Z,102450.53
2022-12-01T17:51:21.751Z,102454.88
2022-12-01T17:53:48.397Z,102454.84
2022-12-01T17:56:16.684Z,102453.13
2022-12-01T17:58:43.875Z,102451.50
2022-12-01T18:01:16.964Z,102450.66
2022-12-01T18:03:43.983Z,102448.09
2022-12-01T18:06:12.124Z,102450.63
2022-12-01T18:08:39.763Z,102449.78
2022-12-01T18:11:10.212Z,102453.19
2022-12-01T18:13:42.121Z,102453.16
2022-12-01T18:16:14.578Z,102461.75
2022-12-01T18:18:42.039Z,102465.19
2022-12-01T18:21:11.058Z,102455.72
2022-12-01T18:23:37.860Z,102454.91
2022-12-01T18:26:16.259Z,102461.75
2022-12-01T18:28:43.876Z,102458.31
2022-12-01T18:31:13.147Z,102453.16
2022-12-01T18:33:42.092Z,102467.75
2022-12-01T18:36:16.870Z,102458.28
2022-12-01T18:38:44.560Z,102459.13
2022-12-01T18:41:11.182Z,102470.25
2022-12-01T18:43:37.786Z,102463.41
2022-12-01T18:46:05.809Z,102459.06
2022-12-01T18:48:33.784Z,102462.47
2022-12-01T18:51:04.532Z,102463.34
2022-12-01T18:53:31.898Z,102476.22
2022-12-01T18:56:05.498Z,102465.94
2022-12-01T18:58:32.568Z,102461.66
2022-12-01T19:01:00.228Z,102463.41
2022-12-01T19:03:33.404Z,102462.50
2022-12-01T19:06:00.746Z,102463.44
2022-12-01T19:08:27.411Z,102458.28
2022-12-01T19:11:00.071Z,102466.91
2022-12-01T19:13:27.735Z,102465.19
2022-12-01T19:15:54.364Z,102463.44
2022-12-01T19:18:21.100Z,102460.88
2022-12-01T19:20:48.500Z,102463.38
2022-12-01T19:23:15.849Z,102466.81
2022-12-01T19:25:43.746Z,102463.41
2022-12-01T19:28:10.499Z,102454.94
2022-12-01T19:30:37.269Z,102472.13
2022-12-01T19:33:04.117Z,102464.50
2022-12-01T19:35:31.686Z,102462.78
2022-12-01T19:37:58.639Z,102471.38
2022-12-01T19:40:25.336Z,102471.38
2022-12-01T19:42:52.643Z,102473.94
2022-12-01T19:45:19.530Z,102473.13
2022-12-01T19:47:46.818Z,102458.50
2022-12-01T19:50:13.688Z,102483.41
2022-12-01T19:52:41.518Z,102477.41
2022-12-01T19:55:10.675Z,102476.50
2022-12-01T19:57:37.886Z,102482.47
2022-12-01T20:00:05.116Z,102478.13
2022-12-01T20:02:38.764Z,102481.56
2022-12-01T20:05:05.926Z,102476.44
2022-12-01T20:07:32.845Z,102479.00
2022-12-01T20:09:59.582Z,102477.31
2022-12-01T20:12:26.273Z,102477.31
2022-12-01T20:14:53.410Z,102476.44
2022-12-01T20:17:20.168Z,102478.22
2022-12-01T20:19:46.813Z,102484.25
2022-12-01T20:22:13.545Z,102476.53
2022-12-01T20:24:42.070Z,102478.22
2022-12-01T20:27:09.037Z,102478.19
2022-12-01T20:29:35.857Z,102473.88
2022-12-01T20:32:03.472Z,102476.47
2022-12-01T20:34:33.789Z,102483.34
2022-12-01T20:37:02.567Z,102475.59
2022-12-01T20:39:32.340Z,102477.34
2022-12-01T20:41:59.419Z,102473.88
2022-12-01T20:44:27.006Z,102470.44
2022-12-01T20:46:58.358Z,102472.16
2022-12-01T20:49:25.159Z,102467.88
2022-12-01T20:51:51.935Z,102471.34
2022-12-01T20:54:28.265Z,102474.75
2022-12-01T20:56:56.575Z,102476.47
2022-12-01T20:59:23.524Z,102467.00
2022-12-01T21:01:50.218Z,102467.84
2022-12-01T21:04:17.696Z,102469.53
2022-12-01T21:06:44.467Z,102480.66
2022-12-01T21:09:12.348Z,102490.09
2022-12-01T21:12:06.741Z,102490.09
2022-12-01T21:14:37.915Z,102486.66
2022-12-01T21:17:28.684Z,102488.41
2022-12-01T21:20:08.869Z,102478.13
2022-12-01T21:22:36.165Z,102477.28
2022-12-01T21:25:12.441Z,102478.94
2022-12-01T21:27:39.114Z,102467.84
2022-12-01T21:30:18.597Z,102469.56
2022-12-01T21:32:46.889Z,102470.41
2022-12-01T21:35:17.518Z,102465.31
2022-12-01T21:37:44.642Z,102479.03
2022-12-01T21:40:23.701Z,102477.28
2022-12-01T21:42:51.365Z,102471.28
2022-12-01T21:45:29.739Z,102467.81
2022-12-01T21:48:25.273Z,102473.03
2022-12-01T21:51:01.024Z,102460.97
2022-12-01T21:53:36.317Z,102465.22
2022-12-01T21:56:03.072Z,102459.22
2022-12-01T21:58:36.278Z,102452.38
2022-12-01T22:01:15.181Z,102459.28
2022-12-01T22:03:46.185Z,102460.16
2022-12-01T22:06:30.329Z,102452.41
2022-12-01T22:09:11.382Z,102455.84
2022-12-01T22:11:38.000Z,102455.00
2022-12-01T22:14:21.951Z,102445.53
2022-12-01T22:17:21.691Z,102448.97
2022-12-01T22:20:22.133Z,102443.84
2022-12-01T22:22:48.776Z,102436.13
2022-12-01T22:25:25.312Z,102443.03
2022-12-01T22:27:52.063Z,102442.16
2022-12-01T22:30:21.590Z,102439.59
2022-12-01T22:33:10.392Z,102444.66
2022-12-01T22:35:50.856Z,102439.53
2022-12-01T22:38:43.909Z,102441.25
2022-12-01T22:41:15.783Z,102437.81
2022-12-01T22:43:42.572Z,102435.22
2022-12-01T22:46:35.180Z,102428.41
2022-12-01T22:49:10.707Z,102440.44
2022-12-01T22:51:46.605Z,102439.56
2022-12-01T22:54:16.173Z,102428.44
2022-12-01T22:56:53.681Z,102428.47
2022-12-01T22:59:41.764Z,102435.31
2022-12-01T23:02:22.429Z,102429.31
2022-12-01T23:04:57.448Z,102446.50
2022-12-01T23:07:30.154Z,102435.31
2022-12-01T23:10:02.689Z,102436.19
2022-12-01T23:12:32.122Z,102437.91
2022-12-01T23:15:16.581Z,102437.94
2022-12-01T23:17:43.365Z,102437.09
2022-12-01T23:20:09.890Z,102443.97
2022-12-01T23:22:37.978Z,102441.38
2022-12-01T23:25:16.558Z,102439.66
2022-12-01T23:27:46.013Z,102429.38
2022-12-01T23:30:14.261Z,102427.69
2022-12-01T23:32:40.875Z,102438.78
2022-12-01T23:35:14.739Z,102426.78
2022-12-01T23:37:43.576Z,102429.38
2022-12-01T23:40:21.119Z,102434.53
2022-12-01T23:42:48.636Z,102435.44
2022-12-01T23:45:21.493Z,102422.56
2022-12-01T23:47:49.940Z,102419.16
2022-12-01T23:50:23.006Z,102424.34
2022-12-01T23:52:49.738Z,102425.19
2022-12-01T23:55:25.501Z,102429.53
2022-12-01T23:57:52.976Z,102432.06
